Skip Navigation Links
NOAA logo - Click to go to the NOAA homepage
NOAA's National Weather Service
Alaska Aviation Weather Unit
  NWS logo - Click to go to the NWS homepage
Left Navbar Graphic     15 AKDT = 23 GMT

   
NOAA is celebrating 200 years of science, service, and stewardship. Visit the NOAA 200th celebration Web site to learn more.
USA.gov is the U.S. Government's official Web portal to all Federal, state and local government Web resources and services.
Facebook
NWS on Facebook

Important Change Regarding the AAWU Web Presence

 

Over the last several months, the AAWU has been working to navigate its webpages to a nationally supported server. Security, as well as other needs, have necessitated the change.  We have been given an extension for the site changeover while we diligently work at addressing feedback received. As of July 14, 2017, aawu.arh.noaa.gov will be discontinued. The new AAWU web address is weather.gov/aawu. It is now live and will run in-parallel with the old site until it is discontinued on July 14, 2017. Please continue to send any feedback or questions regarding the new webpages to nws.ar.aawu.webauthors@noaa.gov.  Thank you for your patience during this time of transition.
AAWU Home :: Display TAF Add Bookmark
TAF PATC 270400Z 2704/2810 18012G18KT 0400 FG OVC002 QNH3015INS
      TX10/2718Z TN06/2710Z=
PATC 191708Z AUTO 34023KT 2 1/2SM -SN BR SCT014 BKN022 BKN075
M02/M04 A2948=

PATC 191728Z AUTO 36024G33KT 3SM -SHRASN BKN013 M03/M05 A2947=

PATC 191748Z AUTO 35027KT 8SM -FZDZ SCT027 BKN070 M02/M06 A2946=

METAR PATC 191755Z AUTO 36028KT 7SM -FZDZ FEW017 SCT028 BKN070 M02/M04
     A2946=

PATC 191808Z AUTO 35023KT 10SM -SN FEW017 FEW070 M02/M06 A2946=

PATC 191828Z AUTO 34019KT 10SM FEW020 M02/M06 A2946=

PATC 191848Z AUTO 35020KT 3/4SM -SN SCT010 BKN024 M03/M04 A2946=

METAR PATC 191855Z AUTO 33024G32KT 1/2SM SHSN BKN009 BKN024 M03/M04
     A2946=

PATC 191908Z AUTO 32024KT 2SM SHSN OVC009 M02/M04 A2944=

PATC 191928Z AUTO 01024KT 2SM -SHSN BR BKN022 M03/M04 A2944=

PATC 191948Z AUTO 36025G32KT 1/2SM -FZRA BKN009 M03/M04 A2945=

METAR PATC 191955Z AUTO 36023KT 1/2SM -PL BKN007 BKN030 M03/M04
     A2945=

PATC 192008Z AUTO 36025G28KT 1 1/2SM -SN SCT007 BKN014 M03/M04
A2944=

PATC 192028Z AUTO 36015KT 2SM -SN BKN011 BKN038 M03/M04 A2944=

PATC 192048Z AUTO 01021G24KT 10SM -FZRA FEW010 BKN034 M02/M06
A2944=

METAR PATC 192055Z AUTO 01022KT 10SM -FZRA BKN034 M02/M07 A2943=

PATC 192108Z AUTO 01021KT 10SM FEW039 SCT050 M02/M07 A2943=

PATC 192148Z AUTO 36022G34KT 1/2SM -SHSN BKN014 BKN160 M04/M05
A2943=

METAR PATC 192155Z AUTO 36022KT 2 1/2SM -SHRASN BR BKN014 M04/M05
     A2943=

PATC 192208Z AUTO 01016KT 9SM -FZRA FEW007 BKN014 M04/M05 A2942=

PATC 192228Z AUTO 02011KT 10SM FEW007 SCT018 M03/M05 A2943=

PATC 192248Z AUTO 36024G33KT 1/2SM SN BKN010 M04/M05 A2942=

METAR PATC 192255Z AUTO 36018G30KT 1 1/4SM SN BKN009 M04/M06 A2942=

PATC 192328Z AUTO 01023KT 3SM -SHRASN FEW010 BKN029 BKN210 M04/M05
A2940=


NOAA's National Weather Service
Alaska Aviation Weather Unit
6930 Sand Lake Road
Anchorage, AK 99502-1845
Disclaimer
Credits
Glossary
Privacy Policy
About Us
Career Opportunities
Contact AAWU Internet Services Site last modified: April, 17th 2012